sensor_id;sensor_type;location;lat;lon;timestamp;pressure;altitude;pressure_sealevel;temperature;humidity
63339;BME280;70568;51.378;-1.342;2023-12-20T00:00:08;100826.15;;;0.96;49.40
63339;BME280;70568;51.378;-1.342;2023-12-20T00:02:35;100813.63;;;-0.27;47.18
63339;BME280;70568;51.378;-1.342;2023-12-20T00:05:03;100815.73;;;0.74;47.63
63339;BME280;70568;51.378;-1.342;2023-12-20T00:07:29;100821.77;;;0.25;48.47
63339;BME280;70568;51.378;-1.342;2023-12-20T00:09:56;100820.70;;;0.66;48.57
63339;BME280;70568;51.378;-1.342;2023-12-20T00:12:22;100818.93;;;0.46;49.10
63339;BME280;70568;51.378;-1.342;2023-12-20T00:14:49;100811.36;;;0.17;49.50
63339;BME280;70568;51.378;-1.342;2023-12-20T00:17:15;100808.43;;;0.33;49.64
63339;BME280;70568;51.378;-1.342;2023-12-20T00:19:42;100804.39;;;0.53;50.55
63339;BME280;70568;51.378;-1.342;2023-12-20T00:22:10;100804.81;;;-0.88;48.08
63339;BME280;70568;51.378;-1.342;2023-12-20T00:24:36;100800.51;;;0.45;46.92
63339;BME280;70568;51.378;-1.342;2023-12-20T00:27:03;100808.52;;;1.29;48.52
63339;BME280;70568;51.378;-1.342;2023-12-20T00:29:30;100807.79;;;0.82;48.37
63339;BME280;70568;51.378;-1.342;2023-12-20T00:31:57;100804.46;;;0.73;49.81
63339;BME280;70568;51.378;-1.342;2023-12-20T00:34:23;100809.22;;;-0.39;49.38
63339;BME280;70568;51.378;-1.342;2023-12-20T00:36:50;100817.79;;;0.61;48.09
63339;BME280;70568;51.378;-1.342;2023-12-20T00:39:17;100820.66;;;0.55;48.87
63339;BME280;70568;51.378;-1.342;2023-12-20T00:41:43;100819.79;;;-0.39;50.18
63339;BME280;70568;51.378;-1.342;2023-12-20T00:44:11;100818.17;;;-0.22;50.15
63339;BME280;70568;51.378;-1.342;2023-12-20T00:46:37;100818.83;;;0.03;49.16
63339;BME280;70568;51.378;-1.342;2023-12-20T00:49:04;100813.87;;;-0.37;49.24
63339;BME280;70568;51.378;-1.342;2023-12-20T00:51:31;100802.82;;;1.30;49.27
63339;BME280;70568;51.378;-1.342;2023-12-20T00:53:58;100795.24;;;0.44;49.00
63339;BME280;70568;51.378;-1.342;2023-12-20T00:56:24;100798.69;;;-0.70;49.51
63339;BME280;70568;51.378;-1.342;2023-12-20T00:58:51;100787.12;;;0.11;47.45
63339;BME280;70568;51.378;-1.342;2023-12-20T01:01:17;100795.64;;;0.05;49.40
63339;BME280;70568;51.378;-1.342;2023-12-20T01:03:44;100805.00;;;1.14;48.11
63339;BME280;70568;51.378;-1.342;2023-12-20T01:06:11;100809.23;;;0.29;48.35
63339;BME280;70568;51.378;-1.342;2023-12-20T01:08:38;100805.38;;;0.61;47.97
63339;BME280;70568;51.378;-1.342;2023-12-20T01:11:05;100808.98;;;-0.62;49.08
63339;BME280;70568;51.378;-1.342;2023-12-20T01:13:32;100812.92;;;0.24;49.26
63339;BME280;70568;51.378;-1.342;2023-12-20T01:15:59;100810.61;;;0.77;48.48
63339;BME280;70568;51.378;-1.342;2023-12-20T01:18:26;100814.77;;;-0.20;49.70
63339;BME280;70568;51.378;-1.342;2023-12-20T01:20:53;100818.18;;;-0.28;49.91
63339;BME280;70568;51.378;-1.342;2023-12-20T01:23:20;100818.19;;;-0.58;49.33
63339;BME280;70568;51.378;-1.342;2023-12-20T01:25:48;100824.23;;;0.40;49.24
63339;BME280;70568;51.378;-1.342;2023-12-20T01:28:14;100822.78;;;1.50;48.36
63339;BME280;70568;51.378;-1.342;2023-12-20T01:30:41;100820.79;;;1.01;47.71
63339;BME280;70568;51.378;-1.342;2023-12-20T01:33:08;100820.79;;;0.69;48.72
63339;BME280;70568;51.378;-1.342;2023-12-20T01:35:35;100818.69;;;0.57;48.40
63339;BME280;70568;51.378;-1.342;2023-12-20T01:38:02;100819.00;;;1.47;45.84
63339;BME280;70568;51.378;-1.342;2023-12-20T01:40:28;100823.74;;;1.28;47.81
63339;BME280;70568;51.378;-1.342;2023-12-20T01:42:59;100816.04;;;1.33;47.17
63339;BME280;70568;51.378;-1.342;2023-12-20T01:45:27;100815.58;;;0.68;47.23
63339;BME280;70568;51.378;-1.342;2023-12-20T01:47:57;100814.58;;;-0.69;48.96
63339;BME280;70568;51.378;-1.342;2023-12-20T01:50:26;100812.67;;;0.84;46.38
63339;BME280;70568;51.378;-1.342;2023-12-20T01:52:56;100805.72;;;0.77;46.86
63339;BME280;70568;51.378;-1.342;2023-12-20T01:55:25;100802.65;;;-0.67;46.73
63339;BME280;70568;51.378;-1.342;2023-12-20T01:57:55;100795.66;;;0.19;46.92
63339;BME280;70568;51.378;-1.342;2023-12-20T02:00:23;100793.95;;;0.77;45.50
63339;BME280;70568;51.378;-1.342;2023-12-20T02:02:52;100800.83;;;0.41;46.31
63339;BME280;70568;51.378;-1.342;2023-12-20T02:05:20;100803.54;;;0.84;48.46
63339;BME280;70568;51.378;-1.342;2023-12-20T02:07:47;100799.50;;;1.08;47.51
63339;BME280;70568;51.378;-1.342;2023-12-20T02:10:15;100799.57;;;1.26;46.13
63339;BME280;70568;51.378;-1.342;2023-12-20T02:12:42;100797.10;;;1.97;46.24
63339;BME280;70568;51.378;-1.342;2023-12-20T02:15:10;100801.52;;;1.17;47.85
63339;BME280;70568;51.378;-1.342;2023-12-20T02:17:38;100801.99;;;0.20;47.75
63339;BME280;70568;51.378;-1.342;2023-12-20T02:20:07;100799.55;;;1.15;48.49
63339;BME280;70568;51.378;-1.342;2023-12-20T02:22:34;100797.18;;;-0.63;49.13
63339;BME280;70568;51.378;-1.342;2023-12-20T02:25:00;100796.74;;;0.61;47.21
63339;BME280;70568;51.378;-1.342;2023-12-20T02:27:27;100789.78;;;-0.12;48.83
63339;BME280;70568;51.378;-1.342;2023-12-20T02:29:55;100791.94;;;0.37;48.94
63339;BME280;70568;51.378;-1.342;2023-12-20T02:32:22;100787.52;;;-0.52;50.02
63339;BME280;70568;51.378;-1.342;2023-12-20T02:34:50;100791.22;;;-0.73;49.82
63339;BME280;70568;51.378;-1.342;2023-12-20T02:37:17;100790.20;;;0.37;49.16
63339;BME280;70568;51.378;-1.342;2023-12-20T02:39:44;100788.64;;;0.08;48.87
63339;BME280;70568;51.378;-1.342;2023-12-20T02:42:11;100788.21;;;1.34;49.18
63339;BME280;70568;51.378;-1.342;2023-12-20T02:44:37;100780.99;;;0.19;49.60
63339;BME280;70568;51.378;-1.342;2023-12-20T02:47:04;100778.46;;;-0.12;48.26
63339;BME280;70568;51.378;-1.342;2023-12-20T02:49:31;100780.54;;;0.44;47.65
63339;BME280;70568;51.378;-1.342;2023-12-20T02:51:57;100778.74;;;1.35;47.17
63339;BME280;70568;51.378;-1.342;2023-12-20T02:54:24;100775.55;;;0.37;47.12
63339;BME280;70568;51.378;-1.342;2023-12-20T02:56:51;100768.16;;;0.33;47.18
63339;BME280;70568;51.378;-1.342;2023-12-20T02:59:18;100766.43;;;2.62;45.30
63339;BME280;70568;51.378;-1.342;2023-12-20T03:01:46;100773.57;;;0.87;45.79
63339;BME280;70568;51.378;-1.342;2023-12-20T03:04:14;100767.80;;;-1.11;45.79
63339;BME280;70568;51.378;-1.342;2023-12-20T03:06:41;100764.55;;;0.89;46.17
63339;BME280;70568;51.378;-1.342;2023-12-20T03:09:09;100764.53;;;0.30;47.11
63339;BME280;70568;51.378;-1.342;2023-12-20T03:11:36;100754.95;;;1.22;47.05
63339;BME280;70568;51.378;-1.342;2023-12-20T03:14:03;100763.39;;;1.62;46.68
63339;BME280;70568;51.378;-1.342;2023-12-20T03:16:30;100771.08;;;0.78;47.78
63339;BME280;70568;51.378;-1.342;2023-12-20T03:18:56;100774.46;;;0.10;47.63
63339;BME280;70568;51.378;-1.342;2023-12-20T03:21:23;100777.90;;;0.62;46.87
63339;BME280;70568;51.378;-1.342;2023-12-20T03:23:49;100775.15;;;0.38;46.34
63339;BME280;70568;51.378;-1.342;2023-12-20T03:26:17;100772.25;;;1.12;45.65
63339;BME280;70568;51.378;-1.342;2023-12-20T03:28:43;100779.02;;;-0.59;47.48
63339;BME280;70568;51.378;-1.342;2023-12-20T03:31:10;100782.43;;;0.42;46.47
63339;BME280;70568;51.378;-1.342;2023-12-20T03:33:37;100782.55;;;1.39;46.15
63339;BME280;70568;51.378;-1.342;2023-12-20T03:36:04;100788.97;;;0.38;47.01
63339;BME280;70568;51.378;-1.342;2023-12-20T03:38:30;100786.00;;;0.31;47.06
63339;BME280;70568;51.378;-1.342;2023-12-20T03:40:57;100780.83;;;0.85;46.71
63339;BME280;70568;51.378;-1.342;2023-12-20T03:43:25;100770.84;;;1.12;46.25
63339;BME280;70568;51.378;-1.342;2023-12-20T03:45:51;100769.91;;;0.46;47.17
63339;BME280;70568;51.378;-1.342;2023-12-20T03:48:18;100770.31;;;-0.09;47.18
63339;BME280;70568;51.378;-1.342;2023-12-20T03:50:45;100763.92;;;0.13;47.48
63339;BME280;70568;51.378;-1.342;2023-12-20T03:53:11;100760.84;;;0.45;47.20
63339;BME280;70568;51.378;-1.342;2023-12-20T03:55:38;100762.75;;;1.47;46.47
63339;BME280;70568;51.378;-1.342;2023-12-20T03:58:05;100757.62;;;2.20;45.48
63339;BME280;70568;51.378;-1.342;2023-12-20T04:00:32;100761.86;;;0.78;44.94
63339;BME280;70568;51.378;-1.342;2023-12-20T04:02:58;100763.46;;;1.16;44.28
63339;BME280;70568;51.378;-1.342;2023-12-20T04:05:26;100762.25;;;-0.26;44.00
63339;BME280;70568;51.378;-1.342;2023-12-20T04:07:53;100765.18;;;1.04;43.55
63339;BME280;70568;51.378;-1.342;2023-12-20T04:10:19;100752.96;;;2.28;41.70
63339;BME280;70568;51.378;-1.342;2023-12-20T04:12:46;100752.34;;;2.02;42.27
63339;BME280;70568;51.378;-1.342;2023-12-20T04:15:13;100752.70;;;3.29;42.13
63339;BME280;70568;51.378;-1.342;2023-12-20T04:17:39;100751.15;;;2.16;42.16
63339;BME280;70568;51.378;-1.342;2023-12-20T04:20:07;100746.08;;;2.74;41.57
63339;BME280;70568;51.378;-1.342;2023-12-20T04:22:34;100745.45;;;2.55;40.03
63339;BME280;70568;51.378;-1.342;2023-12-20T04:25:01;100748.18;;;3.30;38.37
63339;BME280;70568;51.378;-1.342;2023-12-20T04:27:27;100753.44;;;4.57;37.69
63339;BME280;70568;51.378;-1.342;2023-12-20T04:29:55;100749.56;;;4.53;36.65
63339;BME280;70568;51.378;-1.342;2023-12-20T04:32:22;100750.46;;;2.95;37.12
63339;BME280;70568;51.378;-1.342;2023-12-20T04:34:49;100753.45;;;3.53;37.00
63339;BME280;70568;51.378;-1.342;2023-12-20T04:37:15;100753.09;;;3.16;40.13
63339;BME280;70568;51.378;-1.342;2023-12-20T04:39:42;100754.43;;;3.66;38.59
63339;BME280;70568;51.378;-1.342;2023-12-20T04:42:10;100758.49;;;2.95;40.67
63339;BME280;70568;51.378;-1.342;2023-12-20T04:44:37;100760.36;;;4.17;41.29
63339;BME280;70568;51.378;-1.342;2023-12-20T04:47:04;100759.97;;;1.86;41.13
63339;BME280;70568;51.378;-1.342;2023-12-20T04:49:31;100766.26;;;2.17;41.43
63339;BME280;70568;51.378;-1.342;2023-12-20T04:51:57;100766.91;;;2.98;43.64
63339;BME280;70568;51.378;-1.342;2023-12-20T04:54:24;100766.54;;;1.39;44.31
63339;BME280;70568;51.378;-1.342;2023-12-20T04:56:51;100763.31;;;2.92;42.52
63339;BME280;70568;51.378;-1.342;2023-12-20T04:59:17;100764.42;;;2.17;43.91
63339;BME280;70568;51.378;-1.342;2023-12-20T05:01:44;100756.78;;;2.11;44.99
63339;BME280;70568;51.378;-1.342;2023-12-20T05:04:12;100755.07;;;3.09;42.82
63339;BME280;70568;51.378;-1.342;2023-12-20T05:06:40;100752.98;;;3.17;41.27
63339;BME280;70568;51.378;-1.342;2023-12-20T05:09:06;100745.38;;;2.08;41.42
63339;BME280;70568;51.378;-1.342;2023-12-20T05:11:33;100750.11;;;2.57;43.23
63339;BME280;70568;51.378;-1.342;2023-12-20T05:13:59;100747.03;;;1.67;45.01
63339;BME280;70568;51.378;-1.342;2023-12-20T05:16:26;100746.46;;;1.86;46.57
63339;BME280;70568;51.378;-1.342;2023-12-20T05:18:54;100744.70;;;2.06;46.51
63339;BME280;70568;51.378;-1.342;2023-12-20T05:21:20;100740.56;;;2.00;45.85
63339;BME280;70568;51.378;-1.342;2023-12-20T05:23:47;100728.82;;;1.15;46.92
63339;BME280;70568;51.378;-1.342;2023-12-20T05:26:14;100732.38;;;2.04;47.95
63339;BME280;70568;51.378;-1.342;2023-12-20T05:28:40;100730.16;;;0.86;48.86
63339;BME280;70568;51.378;-1.342;2023-12-20T05:31:07;100735.24;;;0.86;47.48
63339;BME280;70568;51.378;-1.342;2023-12-20T05:33:34;100734.99;;;2.67;45.11
63339;BME280;70568;51.378;-1.342;2023-12-20T05:36:01;100731.67;;;2.15;44.96
63339;BME280;70568;51.378;-1.342;2023-12-20T05:38:28;100728.89;;;1.35;46.67
63339;BME280;70568;51.378;-1.342;2023-12-20T05:40:55;100728.85;;;0.20;47.76
63339;BME280;70568;51.378;-1.342;2023-12-20T05:43:21;100723.93;;;2.60;46.74
63339;BME280;70568;51.378;-1.342;2023-12-20T05:45:48;100716.20;;;2.60;46.69
63339;BME280;70568;51.378;-1.342;2023-12-20T05:48:14;100723.28;;;1.34;47.02
63339;BME280;70568;51.378;-1.342;2023-12-20T05:50:41;100731.69;;;2.14;46.13
63339;BME280;70568;51.378;-1.342;2023-12-20T05:53:09;100724.04;;;1.26;46.40
63339;BME280;70568;51.378;-1.342;2023-12-20T05:55:35;100735.29;;;1.69;49.36
63339;BME280;70568;51.378;-1.342;2023-12-20T05:58:02;100736.06;;;0.11;51.88
63339;BME280;70568;51.378;-1.342;2023-12-20T06:00:28;100723.99;;;0.60;50.18
63339;BME280;70568;51.378;-1.342;2023-12-20T06:02:56;100715.79;;;2.06;48.90
63339;BME280;70568;51.378;-1.342;2023-12-20T06:05:23;100722.32;;;2.61;48.09
63339;BME280;70568;51.378;-1.342;2023-12-20T06:07:49;100722.72;;;3.05;47.18
63339;BME280;70568;51.378;-1.342;2023-12-20T06:10:17;100718.03;;;2.03;48.22
63339;BME280;70568;51.378;-1.342;2023-12-20T06:12:44;100708.76;;;0.48;49.74
63339;BME280;70568;51.378;-1.342;2023-12-20T06:15:10;100711.81;;;1.59;49.10
63339;BME280;70568;51.378;-1.342;2023-12-20T06:17:37;100717.08;;;0.58;49.82
63339;BME280;70568;51.378;-1.342;2023-12-20T06:20:04;100719.20;;;1.25;48.90
63339;BME280;70568;51.378;-1.342;2023-12-20T06:22:31;100724.51;;;0.48;48.67
63339;BME280;70568;51.378;-1.342;2023-12-20T06:24:58;100734.19;;;1.94;47.51
63339;BME280;70568;51.378;-1.342;2023-12-20T06:27:25;100737.04;;;1.83;46.93
63339;BME280;70568;51.378;-1.342;2023-12-20T06:29:51;100729.01;;;2.04;45.85
63339;BME280;70568;51.378;-1.342;2023-12-20T06:32:19;100731.88;;;3.21;46.48
63339;BME280;70568;51.378;-1.342;2023-12-20T06:34:46;100730.54;;;2.09;47.34
63339;BME280;70568;51.378;-1.342;2023-12-20T06:37:12;100731.24;;;2.67;46.64
63339;BME280;70568;51.378;-1.342;2023-12-20T06:39:40;100728.77;;;1.67;47.34
63339;BME280;70568;51.378;-1.342;2023-12-20T06:42:06;100725.37;;;1.80;49.22
63339;BME280;70568;51.378;-1.342;2023-12-20T06:44:34;100731.93;;;1.55;48.86
63339;BME280;70568;51.378;-1.342;2023-12-20T06:47:00;100722.23;;;2.02;45.75
63339;BME280;70568;51.378;-1.342;2023-12-20T06:49:28;100726.58;;;3.29;44.62
63339;BME280;70568;51.378;-1.342;2023-12-20T06:51:54;100724.74;;;2.84;45.66
63339;BME280;70568;51.378;-1.342;2023-12-20T06:54:21;100720.21;;;3.14;44.08
63339;BME280;70568;51.378;-1.342;2023-12-20T06:56:48;100726.49;;;3.14;41.67
63339;BME280;70568;51.378;-1.342;2023-12-20T06:59:14;100720.41;;;4.87;42.35
63339;BME280;70568;51.378;-1.342;2023-12-20T07:01:42;100722.53;;;3.48;45.43
63339;BME280;70568;51.378;-1.342;2023-12-20T07:04:10;100716.23;;;3.33;43.83
63339;BME280;70568;51.378;-1.342;2023-12-20T07:06:37;100719.01;;;3.03;44.68
63339;BME280;70568;51.378;-1.342;2023-12-20T07:09:04;100719.11;;;2.63;45.30
63339;BME280;70568;51.378;-1.342;2023-12-20T07:11:31;100707.49;;;3.05;46.91
63339;BME280;70568;51.378;-1.342;2023-12-20T07:13:58;100700.17;;;2.53;47.60
63339;BME280;70568;51.378;-1.342;2023-12-20T07:16:24;100695.21;;;1.85;46.87
63339;BME280;70568;51.378;-1.342;2023-12-20T07:18:51;100682.65;;;3.64;46.26
63339;BME280;70568;51.378;-1.342;2023-12-20T07:21:17;100679.55;;;1.42;47.20
63339;BME280;70568;51.378;-1.342;2023-12-20T07:23:43;100670.15;;;2.56;47.17
63339;BME280;70568;51.378;-1.342;2023-12-20T07:26:10;100663.89;;;2.63;46.82
63339;BME280;70568;51.378;-1.342;2023-12-20T07:28:37;100657.49;;;0.89;47.70
63339;BME280;70568;51.378;-1.342;2023-12-20T07:31:03;100665.27;;;1.10;50.41
63339;BME280;70568;51.378;-1.342;2023-12-20T07:33:30;100660.90;;;1.64;49.76
63339;BME280;70568;51.378;-1.342;2023-12-20T07:35:59;100667.22;;;1.73;47.63
63339;BME280;70568;51.378;-1.342;2023-12-20T07:38:26;100673.58;;;2.16;44.88
63339;BME280;70568;51.378;-1.342;2023-12-20T07:40:52;100682.02;;;2.80;43.95
63339;BME280;70568;51.378;-1.342;2023-12-20T07:43:19;100683.04;;;2.43;44.98
63339;BME280;70568;51.378;-1.342;2023-12-20T07:45:46;100692.39;;;2.91;43.24
63339;BME280;70568;51.378;-1.342;2023-12-20T07:48:12;100696.99;;;2.18;42.23
63339;BME280;70568;51.378;-1.342;2023-12-20T07:50:39;100692.92;;;3.59;44.71
63339;BME280;70568;51.378;-1.342;2023-12-20T07:53:05;100684.84;;;1.81;47.90
63339;BME280;70568;51.378;-1.342;2023-12-20T07:55:32;100687.02;;;1.89;47.23
63339;BME280;70568;51.378;-1.342;2023-12-20T07:57:59;100702.21;;;2.00;46.51
63339;BME280;70568;51.378;-1.342;2023-12-20T08:00:27;100709.59;;;3.06;45.82
63339;BME280;70568;51.378;-1.342;2023-12-20T08:02:54;100719.28;;;2.84;44.90
63339;BME280;70568;51.378;-1.342;2023-12-20T08:05:20;100721.10;;;2.95;46.84
63339;BME280;70568;51.378;-1.342;2023-12-20T08:07:47;100728.26;;;3.28;47.49
63339;BME280;70568;51.378;-1.342;2023-12-20T08:10:14;100722.34;;;3.22;45.61
63339;BME280;70568;51.378;-1.342;2023-12-20T08:12:40;100724.49;;;3.25;46.15
63339;BME280;70568;51.378;-1.342;2023-12-20T08:15:08;100729.12;;;3.60;46.57
63339;BME280;70568;51.378;-1.342;2023-12-20T08:17:36;100738.51;;;3.92;45.67
63339;BME280;70568;51.378;-1.342;2023-12-20T08:20:03;100735.37;;;2.28;46.09
63339;BME280;70568;51.378;-1.342;2023-12-20T08:22:30;100736.46;;;3.06;47.99
63339;BME280;70568;51.378;-1.342;2023-12-20T08:24:56;100740.17;;;2.19;48.07
63339;BME280;70568;51.378;-1.342;2023-12-20T08:27:23;100741.27;;;2.47;46.37
63339;BME280;70568;51.378;-1.342;2023-12-20T08:29:49;100743.00;;;4.21;46.61
63339;BME280;70568;51.378;-1.342;2023-12-20T08:32:21;100738.48;;;2.52;46.40
63339;BME280;70568;51.378;-1.342;2023-12-20T08:34:47;100741.48;;;2.52;48.27
63339;BME280;70568;51.378;-1.342;2023-12-20T08:37:14;100747.82;;;2.67;48.46
63339;BME280;70568;51.378;-1.342;2023-12-20T08:39:40;100748.17;;;2.91;48.15
63339;BME280;70568;51.378;-1.342;2023-12-20T08:42:07;100750.11;;;2.53;47.98
63339;BME280;70568;51.378;-1.342;2023-12-20T08:44:34;100754.15;;;2.56;47.37
63339;BME280;70568;51.378;-1.342;2023-12-20T08:47:01;100750.50;;;3.71;46.70
63339;BME280;70568;51.378;-1.342;2023-12-20T08:49:28;100745.71;;;2.53;47.15
63339;BME280;70568;51.378;-1.342;2023-12-20T08:51:54;100734.81;;;3.30;47.25
63339;BME280;70568;51.378;-1.342;2023-12-20T08:54:21;100731.15;;;2.29;47.08
63339;BME280;70568;51.378;-1.342;2023-12-20T08:56:47;100723.62;;;2.73;46.80
63339;BME280;70568;51.378;-1.342;2023-12-20T08:59:14;100719.41;;;5.02;46.16
63339;BME280;70568;51.378;-1.342;2023-12-20T09:01:43;100711.98;;;2.75;47.16
63339;BME280;70568;51.378;-1.342;2023-12-20T09:04:10;100718.80;;;2.24;47.51
63339;BME280;70568;51.378;-1.342;2023-12-20T09:06:37;100720.12;;;3.22;45.53
63339;BME280;70568;51.378;-1.342;2023-12-20T09:09:04;100725.03;;;3.72;45.03
63339;BME280;70568;51.378;-1.342;2023-12-20T09:11:31;100714.40;;;4.27;43.92
63339;BME280;70568;51.378;-1.342;2023-12-20T09:13:58;100717.03;;;4.01;45.23
63339;BME280;70568;51.378;-1.342;2023-12-20T09:16:24;100706.85;;;2.97;47.73
63339;BME280;70568;51.378;-1.342;2023-12-20T09:18:51;100709.18;;;2.36;48.41
63339;BME280;70568;51.378;-1.342;2023-12-20T09:21:17;100705.36;;;3.49;45.81
63339;BME280;70568;51.378;-1.342;2023-12-20T09:23:44;100706.58;;;3.43;45.05
63339;BME280;70568;51.378;-1.342;2023-12-20T09:26:11;100723.25;;;4.54;45.85
63339;BME280;70568;51.378;-1.342;2023-12-20T09:28:38;100729.12;;;3.15;46.92
63339;BME280;70568;51.378;-1.342;2023-12-20T09:31:04;100729.31;;;4.42;47.73
63339;BME280;70568;51.378;-1.342;2023-12-20T09:33:31;100724.73;;;3.32;47.11
63339;BME280;70568;51.378;-1.342;2023-12-20T09:35:58;100728.10;;;2.18;49.39
63339;BME280;70568;51.378;-1.342;2023-12-20T09:38:25;100729.33;;;2.45;48.40
63339;BME280;70568;51.378;-1.342;2023-12-20T09:40:52;100734.61;;;2.64;47.44
63339;BME280;70568;51.378;-1.342;2023-12-20T09:43:20;100723.73;;;3.12;46.87
63339;BME280;70568;51.378;-1.342;2023-12-20T09:45:47;100723.72;;;3.09;46.02
63339;BME280;70568;51.378;-1.342;2023-12-20T09:48:17;100727.84;;;2.98;46.57
63339;BME280;70568;51.378;-1.342;2023-12-20T09:50:44;100727.71;;;3.04;46.81
63339;BME280;70568;51.378;-1.342;2023-12-20T09:53:15;100726.65;;;4.70;44.98
63339;BME280;70568;51.378;-1.342;2023-12-20T09:55:42;100717.47;;;4.77;45.07
63339;BME280;70568;51.378;-1.342;2023-12-20T09:58:10;100714.07;;;4.39;44.42
63339;BME280;70568;51.378;-1.342;2023-12-20T10:00:37;100720.59;;;4.35;44.98
63339;BME280;70568;51.378;-1.342;2023-12-20T10:03:03;100724.36;;;4.45;45.63
63339;BME280;70568;51.378;-1.342;2023-12-20T10:05:33;100718.05;;;4.74;43.00
63339;BME280;70568;51.378;-1.342;2023-12-20T10:08:01;100729.35;;;4.09;44.44
63339;BME280;70568;51.378;-1.342;2023-12-20T10:10:28;100728.85;;;4.31;44.36
63339;BME280;70568;51.378;-1.342;2023-12-20T10:13:02;100720.67;;;5.42;42.73
63339;BME280;70568;51.378;-1.342;2023-12-20T10:15:29;100733.91;;;4.46;43.68
63339;BME280;70568;51.378;-1.342;2023-12-20T10:17:56;100730.92;;;4.32;44.33
63339;BME280;70568;51.378;-1.342;2023-12-20T10:20:23;100728.30;;;3.92;43.87
63339;BME280;70568;51.378;-1.342;2023-12-20T10:22:50;100721.10;;;5.34;43.24
63339;BME280;70568;51.378;-1.342;2023-12-20T10:25:16;100722.91;;;4.77;44.27
63339;BME280;70568;51.378;-1.342;2023-12-20T10:27:43;100724.72;;;4.47;44.75
63339;BME280;70568;51.378;-1.342;2023-12-20T10:30:10;100714.29;;;4.08;45.15
63339;BME280;70568;51.378;-1.342;2023-12-20T10:32:37;100723.95;;;4.79;44.86
63339;BME280;70568;51.378;-1.342;2023-12-20T10:35:04;100734.94;;;4.00;45.49
63339;BME280;70568;51.378;-1.342;2023-12-20T10:37:35;100737.11;;;4.20;46.70
63339;BME280;70568;51.378;-1.342;2023-12-20T10:40:03;100737.05;;;4.37;46.40
63339;BME280;70568;51.378;-1.342;2023-12-20T10:42:31;100743.33;;;4.04;45.96
63339;BME280;70568;51.378;-1.342;2023-12-20T10:44:59;100740.16;;;4.58;44.69
63339;BME280;70568;51.378;-1.342;2023-12-20T10:47:26;100743.34;;;3.39;47.48
63339;BME280;70568;51.378;-1.342;2023-12-20T10:49:54;100731.53;;;4.56;48.50
63339;BME280;70568;51.378;-1.342;2023-12-20T10:52:23;100727.27;;;3.44;47.07
63339;BME280;70568;51.378;-1.342;2023-12-20T10:54:50;100703.38;;;3.80;47.94
63339;BME280;70568;51.378;-1.342;2023-12-20T10:57:18;100694.99;;;3.71;47.52
63339;BME280;70568;51.378;-1.342;2023-12-20T10:59:45;100686.50;;;3.34;47.25
63339;BME280;70568;51.378;-1.342;2023-12-20T11:02:12;100673.60;;;3.59;46.31
63339;BME280;70568;51.378;-1.342;2023-12-20T11:04:47;100663.89;;;4.82;45.22
63339;BME280;70568;51.378;-1.342;2023-12-20T11:07:23;100666.49;;;3.21;46.47
63339;BME280;70568;51.378;-1.342;2023-12-20T11:09:57;100663.27;;;3.94;46.36
63339;BME280;70568;51.378;-1.342;2023-12-20T11:12:32;100660.45;;;3.53;46.78
63339;BME280;70568;51.378;-1.342;2023-12-20T11:15:01;100652.50;;;4.03;47.01
63339;BME280;70568;51.378;-1.342;2023-12-20T11:17:29;100631.26;;;3.88;46.52
63339;BME280;70568;51.378;-1.342;2023-12-20T11:20:05;100617.39;;;2.92;49.43
63339;BME280;70568;51.378;-1.342;2023-12-20T11:22:33;100609.14;;;2.75;51.54
63339;BME280;70568;51.378;-1.342;2023-12-20T11:25:04;100609.47;;;3.51;50.33
63339;BME280;70568;51.378;-1.342;2023-12-20T11:27:31;100608.17;;;3.45;48.21
63339;BME280;70568;51.378;-1.342;2023-12-20T11:29:58;100607.04;;;3.20;48.37
63339;BME280;70568;51.378;-1.342;2023-12-20T11:32:28;100599.66;;;4.08;45.34
63339;BME280;70568;51.378;-1.342;2023-12-20T11:34:56;100608.19;;;4.73;47.00
63339;BME280;70568;51.378;-1.342;2023-12-20T11:37:28;100610.49;;;2.64;49.01
63339;BME280;70568;51.378;-1.342;2023-12-20T11:39:56;100614.77;;;3.16;50.44
63339;BME280;70568;51.378;-1.342;2023-12-20T11:42:27;100610.19;;;2.94;48.76
63339;BME280;70568;51.378;-1.342;2023-12-20T11:44:53;100614.91;;;3.23;51.17
63339;BME280;70568;51.378;-1.342;2023-12-20T11:47:20;100597.09;;;2.03;50.06
63339;BME280;70568;51.378;-1.342;2023-12-20T11:49:47;100588.15;;;4.19;49.83
63339;BME280;70568;51.378;-1.342;2023-12-20T11:52:14;100586.47;;;3.17;49.31
63339;BME280;70568;51.378;-1.342;2023-12-20T11:54:40;100580.13;;;2.64;48.85
63339;BME280;70568;51.378;-1.342;2023-12-20T11:57:08;100582.42;;;3.52;49.11
63339;BME280;70568;51.378;-1.342;2023-12-20T11:59:36;100568.21;;;5.18;47.75
63339;BME280;70568;51.378;-1.342;2023-12-20T12:02:03;100565.84;;;3.87;48.11
63339;BME280;70568;51.378;-1.342;2023-12-20T12:04:30;100558.27;;;4.03;48.78
63339;BME280;70568;51.378;-1.342;2023-12-20T12:06:57;100555.33;;;3.25;49.85
63339;BME280;70568;51.378;-1.342;2023-12-20T12:09:24;100548.08;;;2.75;52.23
63339;BME280;70568;51.378;-1.342;2023-12-20T12:11:50;100545.24;;;2.65;50.67
63339;BME280;70568;51.378;-1.342;2023-12-20T12:14:17;100548.19;;;3.15;49.45
63339;BME280;70568;51.378;-1.342;2023-12-20T12:16:45;100535.88;;;3.19;48.63
63339;BME280;70568;51.378;-1.342;2023-12-20T12:19:20;100523.80;;;4.67;48.14
63339;BME280;70568;51.378;-1.342;2023-12-20T12:21:48;100514.20;;;3.35;48.09
63339;BME280;70568;51.378;-1.342;2023-12-20T12:24:14;100511.38;;;5.04;48.00
63339;BME280;70568;51.378;-1.342;2023-12-20T12:26:41;100494.34;;;4.73;46.84
63339;BME280;70568;51.378;-1.342;2023-12-20T12:29:09;100489.70;;;4.21;48.94
63339;BME280;70568;51.378;-1.342;2023-12-20T12:31:35;100478.96;;;2.86;52.55
63339;BME280;70568;51.378;-1.342;2023-12-20T12:34:02;100473.21;;;3.35;52.36
63339;BME280;70568;51.378;-1.342;2023-12-20T12:36:29;100470.26;;;3.06;51.95
63339;BME280;70568;51.378;-1.342;2023-12-20T12:38:56;100475.93;;;2.63;51.10
63339;BME280;70568;51.378;-1.342;2023-12-20T12:41:23;100468.94;;;4.92;49.96
63339;BME280;70568;51.378;-1.342;2023-12-20T12:43:50;100467.02;;;4.03;48.82
63339;BME280;70568;51.378;-1.342;2023-12-20T12:46:16;100452.13;;;4.25;47.72
63339;BME280;70568;51.378;-1.342;2023-12-20T12:48:43;100448.77;;;3.55;49.48